Winfield, Missouri
Current Conditions -  °F | °C
As of 4:54 AM on Sunday 23 Nov 2014 (Local Time) from KSET Reporting Station
Overcast Overcast  
Wind Chill: 45°   Ceiling: 10000
Heat Index: 49°   Visibility: 10mi
Dew Point: 45°   Wind: 10mph
Humidity: 86%   Direction: 110°ESE
Pressure: 29.75"   Gusts: NA
Location:  39°N, 90.74°W
Report Text: KSET 231054Z AUTO 11009KT 10SM OVC100 09/07 A2975 RMK AO2 SLP072 T00940072
Loading
Personal Weather Stations






























Interactive Weather Map New forecast layout! Learn more

10-Day Weather Forecast

Advertisements
Track Severe Weather on mobile